createdAt,value
2019-01-21T00:00:00.586Z,81.35
2019-01-21T00:02:28.970Z,81.39
2019-01-21T00:05:00.592Z,81.36
2019-01-21T00:07:36.898Z,81.39
2019-01-21T00:15:58.272Z,81.52
2019-01-21T00:21:35.018Z,81.44
2019-01-21T00:24:04.259Z,81.58
2019-01-21T00:26:34.013Z,81.44
2019-01-21T00:29:04.497Z,81.35
2019-01-21T00:31:34.268Z,81.28
2019-01-21T00:34:05.963Z,81.27
2019-01-21T00:36:52.119Z,81.23
2019-01-21T00:39:23.996Z,81.25
2019-01-21T00:41:57.674Z,81.30
2019-01-21T00:53:35.174Z,81.42
2019-01-21T01:07:39.367Z,81.29
2019-01-21T01:10:19.712Z,81.24
2019-01-21T01:24:58.730Z,80.98
2019-01-21T01:27:41.214Z,80.94
2019-01-21T01:30:16.907Z,80.93
2019-01-21T01:32:54.974Z,81.00
2019-01-21T01:35:27.802Z,81.01
2019-01-21T01:38:06.844Z,81.01
2019-01-21T01:40:36.114Z,81.09
2019-01-21T02:09:28.729Z,81.63
2019-01-21T02:18:19.160Z,81.70
2019-01-21T02:20:48.378Z,81.69
2019-01-21T02:23:17.517Z,81.66
2019-01-21T02:25:46.632Z,81.69
2019-01-21T02:31:30.182Z,81.62
2019-01-21T02:34:04.940Z,81.50
2019-01-21T02:36:52.483Z,81.50
2019-01-21T02:39:28.113Z,81.48
2019-01-21T02:48:06.861Z,81.51
2019-01-21T02:53:37.708Z,81.53
2019-01-21T02:56:16.592Z,81.23
2019-01-21T03:01:51.777Z,81.11
2019-01-21T03:04:25.992Z,81.08
2019-01-21T03:06:56.412Z,81.10
2019-01-21T03:09:27.349Z,81.16
2019-01-21T03:12:02.310Z,81.25
2019-01-21T03:14:35.220Z,81.32
2019-01-21T03:17:06.178Z,81.43
2019-01-21T03:19:36.220Z,81.50
2019-01-21T03:22:15.413Z,81.56
2019-01-21T03:24:44.563Z,81.61
2019-01-21T03:27:19.562Z,81.74
2019-01-21T03:29:50.465Z,81.76
2019-01-21T03:32:29.238Z,81.79
2019-01-21T03:35:01.095Z,81.80
2019-01-21T03:37:35.650Z,81.84
2019-01-21T03:40:12.265Z,81.89
2019-01-21T03:42:47.927Z,81.99
2019-01-21T03:45:26.838Z,82.03
2019-01-21T03:47:56.028Z,82.12
2019-01-21T03:50:27.930Z,82.13
2019-01-21T03:53:01.576Z,82.16
2019-01-21T03:55:30.660Z,82.33
2019-01-21T03:58:00.728Z,82.32
2019-01-21T04:00:30.847Z,82.32
2019-01-21T04:03:03.482Z,82.39
2019-01-21T04:05:33.404Z,82.45
2019-01-21T04:08:06.478Z,82.46
2019-01-21T04:10:38.314Z,82.46
2019-01-21T04:13:09.393Z,82.47
2019-01-21T04:15:38.563Z,82.46
2019-01-21T04:18:10.667Z,82.48
2019-01-21T04:20:48.339Z,82.51
2019-01-21T04:23:20.973Z,82.53
2019-01-21T04:25:54.919Z,82.55
2019-01-21T04:28:24.035Z,82.57
2019-01-21T04:31:03.681Z,82.59
2019-01-21T04:33:50.975Z,82.59
2019-01-21T04:36:23.536Z,82.62
2019-01-21T04:38:56.372Z,82.70
2019-01-21T04:41:27.274Z,82.75
2019-01-21T04:43:57.895Z,82.89
2019-01-21T04:46:31.705Z,82.91
2019-01-21T04:49:06.571Z,82.93
2019-01-21T04:51:39.373Z,83.04
2019-01-21T04:54:12.329Z,83.15
2019-01-21T04:56:44.400Z,83.27
2019-01-21T04:59:29.566Z,83.29
2019-01-21T05:02:11.146Z,83.46
2019-01-21T05:04:44.827Z,83.85
2019-01-21T05:07:14.755Z,83.78
2019-01-21T05:09:44.633Z,83.98
2019-01-21T05:12:13.727Z,83.91
2019-01-21T05:14:48.669Z,84.01
2019-01-21T05:17:28.385Z,83.88
2019-01-21T05:20:09.421Z,84.07
2019-01-21T05:22:39.082Z,84.10
2019-01-21T05:25:11.953Z,84.23
2019-01-21T05:27:41.842Z,84.15
2019-01-21T05:30:11.721Z,84.02
2019-01-21T05:32:40.765Z,84.19
2019-01-21T05:35:18.560Z,84.13
2019-01-21T05:37:49.342Z,84.14
2019-01-21T05:40:25.088Z,84.09
2019-01-21T05:42:57.935Z,84.04
2019-01-21T05:45:45.409Z,83.93
2019-01-21T05:48:32.918Z,83.83
2019-01-21T05:51:09.564Z,83.98
2019-01-21T05:53:44.205Z,84.04
2019-01-21T05:56:19.210Z,83.99
2019-01-21T05:58:54.205Z,83.96
2019-01-21T06:04:16.204Z,83.83
2019-01-21T06:07:01.104Z,83.68
2019-01-21T06:09:30.904Z,83.52
2019-01-21T06:11:59.966Z,83.43
2019-01-21T06:14:31.756Z,83.45
2019-01-21T06:17:06.628Z,83.57
2019-01-21T06:19:40.233Z,83.60
2019-01-21T06:22:13.942Z,83.64
2019-01-21T06:24:44.663Z,83.72
2019-01-21T06:27:15.065Z,83.77
2019-01-21T06:29:49.008Z,83.84
2019-01-21T06:32:26.561Z,83.77
2019-01-21T06:35:02.282Z,83.79
2019-01-21T06:37:32.194Z,83.75
2019-01-21T06:40:18.428Z,83.77
2019-01-21T06:42:53.375Z,83.78
2019-01-21T06:45:38.506Z,83.68
2019-01-21T06:48:14.744Z,83.62
2019-01-21T06:50:45.662Z,83.64
2019-01-21T06:53:16.283Z,83.60
2019-01-21T06:55:51.105Z,83.55
2019-01-21T06:58:38.831Z,83.40
2019-01-21T07:01:19.827Z,83.31
2019-01-21T07:03:48.921Z,83.24
2019-01-21T07:06:22.960Z,83.13
2019-01-21T07:08:55.946Z,83.15
2019-01-21T07:11:31.379Z,83.06
2019-01-21T07:14:05.381Z,82.94
2019-01-21T07:16:41.214Z,82.90
2019-01-21T07:19:15.913Z,82.85
2019-01-21T07:21:56.772Z,82.79
2019-01-21T07:24:28.637Z,82.79
2019-01-21T07:27:00.464Z,82.66
2019-01-21T07:29:34.426Z,82.74
2019-01-21T07:32:03.663Z,82.65
2019-01-21T07:34:33.587Z,82.57
2019-01-21T07:37:07.226Z,82.50
2019-01-21T07:39:41.851Z,82.32
2019-01-21T07:42:15.763Z,82.34
2019-01-21T07:44:56.665Z,82.25
2019-01-21T07:47:34.752Z,82.07
2019-01-21T07:50:07.792Z,82.00
2019-01-21T07:52:38.698Z,81.99
2019-01-21T07:55:11.317Z,82.03
2019-01-21T07:57:43.981Z,81.98
2019-01-21T08:00:13.875Z,81.79
2019-01-21T08:02:55.601Z,81.74
2019-01-21T08:05:24.655Z,81.65
2019-01-21T08:07:54.511Z,81.56
2019-01-21T08:10:25.521Z,81.46
2019-01-21T08:13:00.138Z,81.51
2019-01-21T08:15:31.901Z,81.37
2019-01-21T08:18:01.858Z,81.31
2019-01-21T08:20:31.895Z,81.20
2019-01-21T08:23:03.090Z,81.14
2019-01-21T08:25:35.938Z,81.13
2019-01-21T08:28:09.667Z,81.15
2019-01-21T08:30:40.367Z,81.06
2019-01-21T08:33:19.098Z,80.96
2019-01-21T08:36:06.901Z,80.78
2019-01-21T08:38:37.066Z,80.75
2019-01-21T08:41:09.565Z,80.74
2019-01-21T08:43:39.444Z,80.63
2019-01-21T08:46:24.339Z,80.61
2019-01-21T08:48:58.997Z,80.48
2019-01-21T08:51:28.038Z,80.47
2019-01-21T08:53:59.042Z,80.32
2019-01-21T08:56:29.980Z,80.12
2019-01-21T08:59:00.575Z,80.23
2019-01-21T09:01:37.254Z,80.23
2019-01-21T09:04:08.293Z,80.15
2019-01-21T09:06:42.939Z,79.83
2019-01-21T09:09:30.666Z,79.71
2019-01-21T09:12:03.286Z,79.52
2019-01-21T09:14:34.988Z,79.54
2019-01-21T09:17:07.746Z,79.52
2019-01-21T09:19:37.388Z,79.49
2019-01-21T09:22:06.648Z,79.28
2019-01-21T09:24:35.754Z,79.22
2019-01-21T09:27:09.396Z,79.16
2019-01-21T09:29:38.547Z,79.18
2019-01-21T09:32:14.182Z,78.92
2019-01-21T09:34:44.702Z,78.74
2019-01-21T09:37:16.570Z,78.86
2019-01-21T09:39:46.506Z,78.79
2019-01-21T09:42:15.596Z,78.61
2019-01-21T09:44:45.635Z,78.62
2019-01-21T09:47:14.231Z,78.43
2019-01-21T09:49:43.781Z,78.23
2019-01-21T09:52:12.435Z,78.16
2019-01-21T09:54:41.520Z,77.82
2019-01-21T09:57:10.585Z,77.74
2019-01-21T09:59:39.639Z,77.67
2019-01-21T10:02:08.740Z,77.62
2019-01-21T10:04:37.885Z,77.24
2019-01-21T10:07:10.544Z,76.82
2019-01-21T10:09:39.600Z,76.50
2019-01-21T10:12:25.251Z,76.70
2019-01-21T10:14:58.005Z,76.50
2019-01-21T10:17:27.943Z,76.35
2019-01-21T10:20:15.730Z,76.04
2019-01-21T10:22:51.659Z,75.86
2019-01-21T10:28:30.081Z,75.75
2019-01-21T10:30:59.955Z,75.85
2019-01-21T10:33:37.691Z,75.98
2019-01-21T10:36:23.263Z,75.93
2019-01-21T10:38:54.330Z,75.96
2019-01-21T10:41:25.190Z,75.86
2019-01-21T10:44:00.145Z,75.51
2019-01-21T10:46:34.999Z,75.37
2019-01-21T10:49:22.718Z,75.18
2019-01-21T10:51:54.301Z,75.04
2019-01-21T10:54:24.360Z,75.41
2019-01-21T10:56:54.978Z,75.25
2019-01-21T10:59:27.749Z,74.80
2019-01-21T11:02:00.494Z,74.68
2019-01-21T11:04:30.547Z,74.46
2019-01-21T11:07:02.474Z,74.45
2019-01-21T11:09:35.422Z,74.97
2019-01-21T11:12:15.185Z,74.89
2019-01-21T11:14:48.741Z,74.61
2019-01-21T11:17:21.600Z,74.16
2019-01-21T11:20:03.688Z,73.90
2019-01-21T11:22:26.443Z,74.10
2019-01-21T11:24:58.060Z,73.58
2019-01-21T11:27:33.645Z,73.50
2019-01-21T11:30:08.389Z,73.45
2019-01-21T11:32:37.436Z,73.72
2019-01-21T11:35:13.020Z,73.34
2019-01-21T11:37:46.766Z,73.35
2019-01-21T11:40:16.774Z,73.28
2019-01-21T11:42:57.655Z,73.22
2019-01-21T11:45:45.806Z,73.24
2019-01-21T11:48:17.782Z,73.06
2019-01-21T11:50:47.784Z,73.01
2019-01-21T11:53:19.275Z,72.98
2019-01-21T11:56:08.621Z,72.39
2019-01-21T11:58:43.537Z,72.33
2019-01-21T12:01:17.665Z,72.14
2019-01-21T12:03:47.573Z,72.19
2019-01-21T12:06:16.632Z,71.96
2019-01-21T12:08:53.293Z,71.77
2019-01-21T12:11:26.888Z,71.65
2019-01-21T12:14:03.463Z,71.75
2019-01-21T12:16:38.226Z,71.81
2019-01-21T12:19:08.253Z,71.76
2019-01-21T12:21:39.236Z,71.75
2019-01-21T12:24:08.274Z,71.90
2019-01-21T12:26:43.043Z,71.72
2019-01-21T12:29:13.598Z,71.78
2019-01-21T12:31:42.653Z,71.49
2019-01-21T12:34:16.465Z,71.61
2019-01-21T12:36:45.510Z,71.59
2019-01-21T12:39:18.528Z,71.62
2019-01-21T12:41:51.227Z,71.76
2019-01-21T12:44:39.558Z,71.56
2019-01-21T12:47:15.206Z,71.69
2019-01-21T12:49:49.802Z,71.83
2019-01-21T12:52:18.860Z,71.66
2019-01-21T12:54:47.954Z,71.63
2019-01-21T12:57:18.966Z,71.49
2019-01-21T12:59:48.829Z,71.78
2019-01-21T13:02:20.721Z,71.60
2019-01-21T13:04:50.715Z,71.71
2019-01-21T13:07:19.769Z,71.95
2019-01-21T13:09:49.820Z,72.16
2019-01-21T13:12:18.882Z,72.04
2019-01-21T13:14:49.753Z,72.04
2019-01-21T13:17:19.655Z,72.02
2019-01-21T13:19:50.650Z,71.91
2019-01-21T13:22:22.307Z,71.79
2019-01-21T13:25:03.118Z,71.93
2019-01-21T13:27:40.802Z,71.71
2019-01-21T13:30:11.351Z,71.77
2019-01-21T13:32:42.988Z,71.89
2019-01-21T13:35:17.995Z,72.09
2019-01-21T13:37:52.816Z,71.94
2019-01-21T13:40:27.726Z,72.04
2019-01-21T13:42:56.825Z,72.12
2019-01-21T13:45:44.078Z,72.20
2019-01-21T13:48:13.188Z,72.34
2019-01-21T13:50:43.010Z,72.26
2019-01-21T13:53:13.668Z,72.21
2019-01-21T13:55:43.678Z,72.29
2019-01-21T13:58:16.599Z,72.25
2019-01-21T14:00:49.460Z,72.19
2019-01-21T14:03:18.526Z,72.25
2019-01-21T14:08:50.551Z,72.23
2019-01-21T14:11:24.308Z,72.40
2019-01-21T14:13:54.316Z,72.46
2019-01-21T14:16:26.335Z,72.45
2019-01-21T14:18:57.308Z,72.35
2019-01-21T14:21:34.184Z,72.50
2019-01-21T14:24:05.661Z,72.61
2019-01-21T14:26:50.354Z,72.75
2019-01-21T14:29:21.930Z,72.73
2019-01-21T14:31:56.680Z,72.82
2019-01-21T14:34:31.452Z,72.61
2019-01-21T14:37:04.288Z,72.79
2019-01-21T14:39:34.284Z,72.94
2019-01-21T14:42:11.867Z,73.04
2019-01-21T14:44:47.584Z,73.11
2019-01-21T14:47:23.236Z,73.18
2019-01-21T14:49:54.159Z,73.29
2019-01-21T14:52:28.727Z,73.47
2019-01-21T14:55:06.461Z,73.57
2019-01-21T14:57:38.486Z,73.71
2019-01-21T15:00:10.348Z,73.77
2019-01-21T15:02:41.398Z,73.83
2019-01-21T15:05:16.353Z,73.81
2019-01-21T15:07:47.984Z,73.82
2019-01-21T15:10:17.857Z,73.92
2019-01-21T15:12:53.221Z,73.94
2019-01-21T15:15:41.576Z,73.94
2019-01-21T15:18:14.595Z,74.05
2019-01-21T15:20:44.652Z,74.08
2019-01-21T15:23:13.693Z,74.02
2019-01-21T15:25:56.445Z,74.14
2019-01-21T15:28:31.090Z,74.21
2019-01-21T15:31:05.908Z,74.39
2019-01-21T15:33:39.987Z,74.46
2019-01-21T15:36:14.978Z,74.57
2019-01-21T15:38:59.766Z,74.54
2019-01-21T15:41:28.858Z,74.65
2019-01-21T15:43:57.947Z,74.74
2019-01-21T15:46:32.768Z,74.73
2019-01-21T15:49:06.419Z,74.73
2019-01-21T15:51:38.203Z,74.74
2019-01-21T15:54:08.856Z,74.74
2019-01-21T15:56:51.977Z,74.64
2019-01-21T15:59:36.925Z,74.47
2019-01-21T16:02:06.817Z,74.52
2019-01-21T16:04:35.883Z,74.54
2019-01-21T16:07:05.727Z,74.54
2019-01-21T16:09:40.551Z,74.63
2019-01-21T16:12:14.508Z,74.55
2019-01-21T16:14:46.507Z,74.61
2019-01-21T16:17:15.562Z,74.63
2019-01-21T16:19:44.614Z,74.64
2019-01-21T16:22:21.311Z,74.58
2019-01-21T16:24:53.311Z,74.58
2019-01-21T16:27:25.111Z,74.58
2019-01-21T16:29:54.173Z,74.60
2019-01-21T16:32:23.246Z,74.59
2019-01-21T16:34:58.130Z,74.64
2019-01-21T16:37:29.029Z,74.67
2019-01-21T16:40:13.240Z,74.72
2019-01-21T16:42:42.306Z,74.78
2019-01-21T16:45:11.377Z,74.87
2019-01-21T16:47:40.510Z,74.87
2019-01-21T16:50:09.587Z,74.89
2019-01-21T16:52:38.661Z,74.96
2019-01-21T16:55:07.830Z,74.98
2019-01-21T16:57:36.858Z,75.00
2019-01-21T17:00:05.931Z,75.03
2019-01-21T17:02:35.011Z,75.07
2019-01-21T17:05:04.077Z,75.02
2019-01-21T17:07:33.157Z,75.02
2019-01-21T17:10:02.268Z,75.03
2019-01-21T17:12:31.330Z,75.11
2019-01-21T17:15:01.237Z,75.19
2019-01-21T17:17:30.329Z,75.22
2019-01-21T17:19:59.400Z,75.37
2019-01-21T17:22:28.485Z,76.11
2019-01-21T17:24:57.592Z,76.48
2019-01-21T17:27:26.679Z,76.35
2019-01-21T17:29:55.759Z,76.47
2019-01-21T17:32:24.946Z,76.20
2019-01-21T17:34:54.037Z,76.02
2019-01-21T17:37:23.129Z,75.88
2019-01-21T17:39:52.235Z,75.85
2019-01-21T17:42:21.317Z,75.83
2019-01-21T17:44:50.393Z,75.96
2019-01-21T17:47:19.496Z,76.07
2019-01-21T17:49:48.574Z,76.12
2019-01-21T17:52:17.652Z,76.09
2019-01-21T17:54:46.785Z,76.17
2019-01-21T17:57:15.869Z,76.20
2019-01-21T17:59:44.928Z,76.39
2019-01-21T18:02:14.034Z,76.45
2019-01-21T18:04:43.134Z,76.38
2019-01-21T18:07:12.181Z,76.44
2019-01-21T18:09:41.282Z,76.48
2019-01-21T18:12:10.366Z,76.70
2019-01-21T18:14:39.427Z,77.07
2019-01-21T18:17:08.558Z,77.20
2019-01-21T18:19:37.633Z,77.68
2019-01-21T18:22:06.716Z,77.79
2019-01-21T18:24:35.825Z,77.41
2019-01-21T18:27:04.896Z,77.29
2019-01-21T18:29:33.953Z,76.95
2019-01-21T18:32:03.058Z,76.93
2019-01-21T18:34:32.129Z,76.87
2019-01-21T18:37:01.216Z,76.88
2019-01-21T18:39:30.357Z,76.86
2019-01-21T18:41:59.422Z,76.87
2019-01-21T18:44:28.507Z,76.85
2019-01-21T18:46:57.597Z,76.89
2019-01-21T18:49:26.664Z,76.86
2019-01-21T18:51:55.747Z,76.96
2019-01-21T18:54:24.845Z,77.01
2019-01-21T18:56:53.920Z,77.11
2019-01-21T18:59:22.983Z,77.11
2019-01-21T19:01:52.143Z,77.07
2019-01-21T19:04:21.229Z,77.13
2019-01-21T19:06:50.312Z,77.23
2019-01-21T19:09:19.496Z,77.24
2019-01-21T19:11:48.541Z,77.25
2019-01-21T19:14:17.635Z,77.52
2019-01-21T19:16:46.740Z,77.52
2019-01-21T19:19:16.640Z,77.87
2019-01-21T19:21:45.718Z,77.54
2019-01-21T19:24:14.942Z,77.73
2019-01-21T19:29:47.929Z,78.53
2019-01-21T19:32:17.003Z,78.42
2019-01-21T19:34:46.073Z,78.77
2019-01-21T19:37:15.184Z,78.63
2019-01-21T19:39:44.260Z,78.29
2019-01-21T19:42:13.362Z,78.03
2019-01-21T19:44:42.496Z,77.71
2019-01-21T19:47:11.572Z,77.72
2019-01-21T19:49:40.646Z,78.10
2019-01-21T19:52:09.746Z,78.25
2019-01-21T19:54:38.837Z,78.37
2019-01-21T19:57:07.913Z,78.27
2019-01-21T19:59:37.010Z,78.22
2019-01-21T20:02:06.085Z,78.23
2019-01-21T20:04:35.162Z,78.08
2019-01-21T20:07:04.268Z,78.15
2019-01-21T20:09:33.352Z,78.15
2019-01-21T20:12:02.438Z,78.27
2019-01-21T20:14:31.577Z,78.09
2019-01-21T20:17:00.648Z,77.92
2019-01-21T20:19:29.720Z,78.05
2019-01-21T20:21:58.815Z,78.67
2019-01-21T20:24:27.887Z,78.72
2019-01-21T20:26:56.961Z,79.18
2019-01-21T20:29:26.095Z,79.18
2019-01-21T20:31:55.173Z,79.03
2019-01-21T20:34:24.255Z,79.45
2019-01-21T20:36:53.370Z,79.88
2019-01-21T20:39:22.872Z,80.19
2019-01-21T20:41:51.728Z,80.25
2019-01-21T20:44:20.844Z,80.41
2019-01-21T20:46:49.924Z,79.89
2019-01-21T20:49:19.063Z,79.68
2019-01-21T20:51:48.512Z,80.14
2019-01-21T20:54:17.593Z,79.75
2019-01-21T20:56:46.707Z,79.48
2019-01-21T20:59:15.840Z,79.30
2019-01-21T21:01:45.079Z,79.49
2019-01-21T21:04:14.189Z,79.26
2019-01-21T21:06:43.321Z,79.07
2019-01-21T21:09:12.393Z,78.95
2019-01-21T21:11:41.539Z,78.82
2019-01-21T21:14:11.102Z,78.69
2019-01-21T21:16:40.178Z,78.57
2019-01-21T21:19:09.262Z,78.52
2019-01-21T21:21:38.364Z,78.48
2019-01-21T21:24:07.440Z,78.41
2019-01-21T21:39:14.976Z,77.96
2019-01-21T21:41:44.041Z,77.94
2019-01-21T21:44:13.122Z,77.81
2019-01-21T21:46:42.216Z,77.83
2019-01-21T21:49:11.287Z,77.89
2019-01-21T21:51:40.404Z,77.93
2019-01-21T21:54:09.562Z,77.92
2019-01-21T21:56:38.673Z,77.93
2019-01-21T21:59:07.787Z,77.95
2019-01-21T22:01:40.064Z,78.00
2019-01-21T22:04:06.035Z,77.91
2019-01-21T22:06:35.155Z,77.73
2019-01-21T22:09:04.315Z,77.51
2019-01-21T22:11:33.425Z,77.58
2019-01-21T22:14:02.567Z,77.41
2019-01-21T22:16:31.740Z,77.41
2019-01-21T22:19:00.885Z,77.47
2019-01-21T22:21:29.995Z,77.64
2019-01-21T22:23:59.205Z,77.71
2019-01-21T22:26:28.295Z,77.58
2019-01-21T22:28:57.423Z,77.57
2019-01-21T22:31:26.561Z,77.57
2019-01-21T22:33:55.674Z,77.60
2019-01-21T22:36:24.789Z,77.65
2019-01-21T22:38:53.950Z,77.64
2019-01-21T22:41:23.056Z,77.69
2019-01-21T22:43:52.176Z,77.68
2019-01-21T22:46:23.313Z,77.67
2019-01-21T22:48:52.441Z,77.61
2019-01-21T22:51:21.589Z,77.61
2019-01-21T22:53:50.743Z,77.60
2019-01-21T22:56:19.860Z,77.59
2019-01-21T22:58:48.955Z,77.57
2019-01-21T23:01:18.112Z,77.56
2019-01-21T23:03:47.197Z,77.50
2019-01-21T23:06:16.289Z,77.49
2019-01-21T23:08:45.434Z,77.46
2019-01-21T23:11:14.575Z,77.33
2019-01-21T23:13:46.574Z,76.92
2019-01-21T23:16:15.689Z,76.72
2019-01-21T23:18:44.799Z,77.09
2019-01-21T23:21:13.913Z,77.04
2019-01-21T23:23:43.047Z,77.13
2019-01-21T23:26:12.164Z,77.06
2019-01-21T23:28:41.264Z,77.09
2019-01-21T23:31:10.384Z,77.06
2019-01-21T23:33:39.487Z,77.06
2019-01-21T23:36:08.595Z,76.93
2019-01-21T23:38:37.826Z,76.98
2019-01-21T23:41:06.920Z,77.04
2019-01-21T23:43:36.031Z,77.00
2019-01-21T23:52:16.461Z,76.95
2019-01-21T23:54:45.536Z,76.99
2019-01-21T23:57:14.600Z,76.92
2019-01-21T23:59:43.707Z,76.91
